»·PEaware :: CFEGU KSNA-KPSP

CFEGU :: KSNA-KPSP

FLIGHT INFORMATION

Flight Status: Arrived
Operator: Unknown
More flights by this operator :: More flights under this callsign
Pilot: Vincent M. (370)
Aircraft: CESSNA 172 SKYHAWK
(C172)
More flights by this aircraft type
Origin: KSNA John Wayne-Orange Co
United States
Destination: KPSP Palm Springs Intl
United States
More flights between these airports :: More routes between these airports
Route:
File this flight plan on PilotEdge
Remarks:
Altitude:
(Current/Filed)
7,500ft
Speed:
(Current/Filed)
0kts
Departed: 07-Jan-21 05:57 PM
Arrived: 07-Jan-21 06:45 PM
Distance/Time
Traveled:
69nm/0:48
Distance/Time
To Go:
Arrived

Flight Plot

Page will automatically refresh every two minutes.


Map Options




Map Legend


Flown Route
Filed Route
Departure Airport
Arrival Airport
Navaid (VOR, NDB)
Fix

Horizontal Profiles

Position Reports

Time Latitude Longitude Heading Altitude Ground
Speed
07-Jan-21 17:48 33.674118 -117.872015 48 60ft 0kts
07-Jan-21 17:49 33.674118 -117.872015 48 60ft 0kts
07-Jan-21 17:50 33.674118 -117.872015 48 60ft 0kts
07-Jan-21 17:51 33.674118 -117.872015 48 60ft 0kts
07-Jan-21 17:52 33.676175 -117.870020 27 60ft 18kts
07-Jan-21 17:53 33.680549 -117.867432 30 60ft 15kts
07-Jan-21 17:54 33.681220 -117.866478 111 60ft 0kts
07-Jan-21 17:55 33.681219 -117.866478 111 60ft 0kts
07-Jan-21 17:56 33.674557 -117.869561 209 174ft 78kts
07-Jan-21 17:57 33.654903 -117.873664 131 1009ft 94kts
07-Jan-21 17:58 33.652822 -117.839639 92 1720ft 107kts
07-Jan-21 17:59 33.656458 -117.804226 56 2421ft 110kts
07-Jan-21 18:00 33.683725 -117.791530 9 3119ft 105kts
07-Jan-21 18:01 33.710244 -117.783177 9 3812ft 92kts
07-Jan-21 18:02 33.734552 -117.774912 9 4434ft 91kts
07-Jan-21 18:03 33.734552 -117.774912 9 4434ft 91kts
07-Jan-21 18:04 33.778399 -117.759467 9 5523ft 90kts
07-Jan-21 18:05 33.802294 -117.750936 9 6124ft 88kts
07-Jan-21 18:06 33.821182 -117.732512 54 6690ft 95kts
07-Jan-21 18:07 33.831315 -117.700498 77 7115ft 110kts
07-Jan-21 18:08 33.837167 -117.663956 77 7383ft 116kts
07-Jan-21 18:09 33.844053 -117.624817 75 7386ft 121kts
07-Jan-21 18:10 33.850757 -117.584835 76 7391ft 122kts
07-Jan-21 18:11 33.857537 -117.544432 76 7391ft 123kts
07-Jan-21 18:12 33.864373 -117.504152 76 7391ft 123kts
07-Jan-21 18:13 33.871305 -117.463752 76 7391ft 123kts
07-Jan-21 18:14 33.878324 -117.423297 76 7391ft 123kts
07-Jan-21 18:16 33.885391 -117.383008 76 7391ft 123kts
07-Jan-21 18:17 33.892564 -117.342560 76 7389ft 123kts
07-Jan-21 18:18 33.899791 -117.302380 76 7389ft 122kts
07-Jan-21 18:19 33.907055 -117.262400 76 7389ft 122kts
07-Jan-21 18:20 33.914419 -117.222289 76 7389ft 122kts
07-Jan-21 18:21 33.921829 -117.182338 75 7389ft 122kts
07-Jan-21 18:22 33.929529 -117.141011 73 6789ft 129kts
07-Jan-21 18:23 33.938367 -117.099008 78 6086ft 130kts
07-Jan-21 18:24 33.943413 -117.055900 83 5381ft 130kts
07-Jan-21 18:25 33.945154 -117.012516 89 4679ft 129kts
07-Jan-21 18:26 33.942190 -116.969414 96 3977ft 129kts
07-Jan-21 18:27 33.937498 -116.926919 103 3360ft 123kts
07-Jan-21 18:28 33.934353 -116.885521 89 3347ft 124kts
07-Jan-21 18:29 33.934435 -116.843860 90 3351ft 124kts
07-Jan-21 18:30 33.933446 -116.802068 91 3354ft 125kts
07-Jan-21 18:31 33.932368 -116.760135 91 3353ft 125kts
07-Jan-21 18:32 33.931218 -116.718230 92 3355ft 125kts
07-Jan-21 18:32 33.928600 -116.683441 97 3358ft 125kts
07-Jan-21 18:33 33.924334 -116.641747 97 3300ft 131kts
07-Jan-21 18:34 33.919592 -116.599948 104 2592ft 120kts
07-Jan-21 18:36 33.905717 -116.556735 119 1780ft 118kts
07-Jan-21 18:36 33.891790 -116.528733 126 1355ft 114kts
07-Jan-21 18:37 33.872425 -116.501894 141 1354ft 104kts
07-Jan-21 18:38 33.850701 -116.477615 141 1353ft 107kts
07-Jan-21 18:39 33.828103 -116.452427 141 1353ft 112kts
07-Jan-21 18:40 33.805892 -116.447038 219 1287ft 80kts
07-Jan-21 18:41 33.796735 -116.465630 276 1026ft 65kts
07-Jan-21 18:42 33.806120 -116.483796 313 770ft 66kts
07-Jan-21 18:43 33.819962 -116.496171 315 554ft 63kts
07-Jan-21 18:44 33.829391 -116.504564 323 481ft 17kts
07-Jan-21 18:45 33.831753 -116.506002 51 481ft 0kts
07-Jan-21 18:46 33.828515 -116.502743 143 481ft 28kts
07-Jan-21 18:47 33.823436 -116.497471 8 481ft 11kts
07-Jan-21 18:48 33.823766 -116.497920 226 481ft 0kts
07-Jan-21 18:49 33.823766 -116.497920 226 481ft 0kts

Navigation Log

Ident Type
Flight plan parsing failed, navigation log unavailable